Terminal Aerodrome Forecast
Issued by NWS

Home | Current Version | Previous Version | Text Only | Print | Product List | Glossary On
Versions: 1 2 3 4 5 6 7 8 9 10 11 12 13 14 15
118
FTUS41 KCAR 222323
TAFBHB
TAF
KBHB 222323Z 2300/2324 20007KT P6SM -SHRA OVC035
     FM230100 19007KT 6SM -SHRA OVC010
     FM230300 19007KT 3SM -DZ OVC004
     FM231400 20004KT P6SM SCT008 OVC012
     FM231800 22005KT P6SM SCT040=

USA.gov is the U.S. government's official web portal to all federal, state and local government web resources and services.